sensor_id;sensor_type;location;lat;lon;timestamp;P1;durP1;ratioP1;P2;durP2;ratioP2
17842;SDS011;69286;48.222;16.332;2023-07-13T00:01:54;2.90;;;1.87;;
17842;SDS011;69286;48.222;16.332;2023-07-13T00:04:22;2.13;;;1.90;;
17842;SDS011;69286;48.222;16.332;2023-07-13T00:06:51;6.80;;;2.20;;
17842;SDS011;69286;48.222;16.332;2023-07-13T00:09:19;5.37;;;2.07;;
17842;SDS011;69286;48.222;16.332;2023-07-13T00:11:49;3.23;;;2.07;;
17842;SDS011;69286;48.222;16.332;2023-07-13T00:14:17;6.40;;;2.00;;
17842;SDS011;69286;48.222;16.332;2023-07-13T00:16:46;2.83;;;2.40;;
17842;SDS011;69286;48.222;16.332;2023-07-13T00:19:13;3.17;;;2.20;;
17842;SDS011;69286;48.222;16.332;2023-07-13T00:21:40;4.37;;;2.10;;
17842;SDS011;69286;48.222;16.332;2023-07-13T00:24:08;3.43;;;2.00;;
17842;SDS011;69286;48.222;16.332;2023-07-13T00:26:38;5.50;;;1.90;;
17842;SDS011;69286;48.222;16.332;2023-07-13T00:29:06;2.60;;;2.20;;
17842;SDS011;69286;48.222;16.332;2023-07-13T00:31:34;8.63;;;1.93;;
17842;SDS011;69286;48.222;16.332;2023-07-13T00:34:03;2.67;;;1.80;;
17842;SDS011;69286;48.222;16.332;2023-07-13T00:36:30;2.97;;;1.93;;
17842;SDS011;69286;48.222;16.332;2023-07-13T00:38:57;4.20;;;1.80;;
17842;SDS011;69286;48.222;16.332;2023-07-13T00:41:24;2.13;;;1.60;;
17842;SDS011;69286;48.222;16.332;2023-07-13T00:43:52;3.70;;;2.00;;
17842;SDS011;69286;48.222;16.332;2023-07-13T00:46:21;2.00;;;1.60;;
17842;SDS011;69286;48.222;16.332;2023-07-13T00:48:50;1.87;;;1.60;;
17842;SDS011;69286;48.222;16.332;2023-07-13T00:51:21;2.77;;;1.63;;
17842;SDS011;69286;48.222;16.332;2023-07-13T00:53:52;3.17;;;1.70;;
17842;SDS011;69286;48.222;16.332;2023-07-13T00:56:21;2.03;;;1.50;;
17842;SDS011;69286;48.222;16.332;2023-07-13T00:58:48;1.90;;;1.70;;
17842;SDS011;69286;48.222;16.332;2023-07-13T01:01:16;1.60;;;1.30;;
17842;SDS011;69286;48.222;16.332;2023-07-13T01:03:43;1.20;;;1.10;;
17842;SDS011;69286;48.222;16.332;2023-07-13T01:06:11;1.33;;;1.23;;
17842;SDS011;69286;48.222;16.332;2023-07-13T01:08:40;1.53;;;1.37;;
17842;SDS011;69286;48.222;16.332;2023-07-13T01:11:07;2.20;;;1.40;;
17842;SDS011;69286;48.222;16.332;2023-07-13T01:13:34;2.40;;;1.20;;
17842;SDS011;69286;48.222;16.332;2023-07-13T01:16:02;1.90;;;1.33;;
17842;SDS011;69286;48.222;16.332;2023-07-13T01:18:35;3.13;;;1.33;;
17842;SDS011;69286;48.222;16.332;2023-07-13T01:21:05;1.73;;;1.30;;
17842;SDS011;69286;48.222;16.332;2023-07-13T01:23:32;1.17;;;1.07;;
17842;SDS011;69286;48.222;16.332;2023-07-13T01:25:59;1.60;;;1.37;;
17842;SDS011;69286;48.222;16.332;2023-07-13T01:28:27;1.53;;;1.40;;
17842;SDS011;69286;48.222;16.332;2023-07-13T01:30:56;3.27;;;1.90;;
17842;SDS011;69286;48.222;16.332;2023-07-13T01:33:25;1.30;;;1.20;;
17842;SDS011;69286;48.222;16.332;2023-07-13T01:35:52;2.33;;;1.40;;
17842;SDS011;69286;48.222;16.332;2023-07-13T01:38:21;1.80;;;1.40;;
17842;SDS011;69286;48.222;16.332;2023-07-13T01:40:50;2.20;;;1.40;;
17842;SDS011;69286;48.222;16.332;2023-07-13T01:43:17;3.50;;;1.37;;
17842;SDS011;69286;48.222;16.332;2023-07-13T01:45:45;2.10;;;1.70;;
17842;SDS011;69286;48.222;16.332;2023-07-13T01:48:12;2.23;;;1.40;;
17842;SDS011;69286;48.222;16.332;2023-07-13T01:50:39;1.50;;;1.40;;
17842;SDS011;69286;48.222;16.332;2023-07-13T01:53:07;1.43;;;1.33;;
17842;SDS011;69286;48.222;16.332;2023-07-13T01:55:35;3.93;;;1.60;;
17842;SDS011;69286;48.222;16.332;2023-07-13T01:58:03;2.13;;;1.60;;
17842;SDS011;69286;48.222;16.332;2023-07-13T02:00:31;2.63;;;1.50;;
17842;SDS011;69286;48.222;16.332;2023-07-13T02:02:58;2.97;;;1.40;;
17842;SDS011;69286;48.222;16.332;2023-07-13T02:05:25;1.80;;;1.50;;
17842;SDS011;69286;48.222;16.332;2023-07-13T02:07:52;5.17;;;1.50;;
17842;SDS011;69286;48.222;16.332;2023-07-13T02:10:19;3.83;;;1.70;;
17842;SDS011;69286;48.222;16.332;2023-07-13T02:12:48;1.73;;;1.40;;
17842;SDS011;69286;48.222;16.332;2023-07-13T02:15:15;2.17;;;1.93;;
17842;SDS011;69286;48.222;16.332;2023-07-13T02:17:43;2.57;;;1.60;;
17842;SDS011;69286;48.222;16.332;2023-07-13T02:20:10;2.90;;;1.67;;
17842;SDS011;69286;48.222;16.332;2023-07-13T02:22:37;3.63;;;1.90;;
17842;SDS011;69286;48.222;16.332;2023-07-13T02:25:04;2.27;;;1.60;;
17842;SDS011;69286;48.222;16.332;2023-07-13T02:27:32;3.07;;;1.87;;
17842;SDS011;69286;48.222;16.332;2023-07-13T02:30:00;1.90;;;1.63;;
17842;SDS011;69286;48.222;16.332;2023-07-13T02:32:28;2.20;;;1.70;;
17842;SDS011;69286;48.222;16.332;2023-07-13T02:34:55;1.67;;;1.57;;
17842;SDS011;69286;48.222;16.332;2023-07-13T02:37:22;5.10;;;1.57;;
17842;SDS011;69286;48.222;16.332;2023-07-13T02:39:49;2.60;;;1.70;;
17842;SDS011;69286;48.222;16.332;2023-07-13T02:42:16;3.60;;;1.50;;
17842;SDS011;69286;48.222;16.332;2023-07-13T02:44:43;1.93;;;1.60;;
17842;SDS011;69286;48.222;16.332;2023-07-13T02:47:11;2.07;;;1.80;;
17842;SDS011;69286;48.222;16.332;2023-07-13T02:49:39;4.20;;;1.50;;
17842;SDS011;69286;48.222;16.332;2023-07-13T02:52:06;2.80;;;1.67;;
17842;SDS011;69286;48.222;16.332;2023-07-13T02:54:33;5.80;;;1.80;;
17842;SDS011;69286;48.222;16.332;2023-07-13T02:57:00;4.23;;;2.07;;
17842;SDS011;69286;48.222;16.332;2023-07-13T02:59:27;4.43;;;2.10;;
17842;SDS011;69286;48.222;16.332;2023-07-13T03:01:54;4.20;;;1.70;;
17842;SDS011;69286;48.222;16.332;2023-07-13T03:04:22;4.30;;;1.87;;
17842;SDS011;69286;48.222;16.332;2023-07-13T03:06:49;5.77;;;1.90;;
17842;SDS011;69286;48.222;16.332;2023-07-13T03:09:16;2.03;;;1.87;;
17842;SDS011;69286;48.222;16.332;2023-07-13T03:11:43;5.30;;;1.77;;
17842;SDS011;69286;48.222;16.332;2023-07-13T03:14:10;3.40;;;1.90;;
17842;SDS011;69286;48.222;16.332;2023-07-13T03:16:37;3.77;;;1.90;;
17842;SDS011;69286;48.222;16.332;2023-07-13T03:19:04;3.13;;;2.20;;
17842;SDS011;69286;48.222;16.332;2023-07-13T03:21:33;3.00;;;1.67;;
17842;SDS011;69286;48.222;16.332;2023-07-13T03:24:00;2.60;;;1.57;;
17842;SDS011;69286;48.222;16.332;2023-07-13T03:26:27;5.53;;;2.00;;
17842;SDS011;69286;48.222;16.332;2023-07-13T03:28:54;2.70;;;1.70;;
17842;SDS011;69286;48.222;16.332;2023-07-13T03:31:24;3.47;;;1.97;;
17842;SDS011;69286;48.222;16.332;2023-07-13T03:33:53;2.57;;;1.77;;
17842;SDS011;69286;48.222;16.332;2023-07-13T03:36:21;3.90;;;1.87;;
17842;SDS011;69286;48.222;16.332;2023-07-13T03:38:52;4.73;;;1.67;;
17842;SDS011;69286;48.222;16.332;2023-07-13T03:41:20;3.30;;;1.83;;
17842;SDS011;69286;48.222;16.332;2023-07-13T03:43:48;4.57;;;1.70;;
17842;SDS011;69286;48.222;16.332;2023-07-13T03:46:16;2.33;;;1.77;;
17842;SDS011;69286;48.222;16.332;2023-07-13T03:48:43;3.70;;;2.00;;
17842;SDS011;69286;48.222;16.332;2023-07-13T03:51:12;4.20;;;1.80;;
17842;SDS011;69286;48.222;16.332;2023-07-13T03:53:42;3.60;;;1.83;;
17842;SDS011;69286;48.222;16.332;2023-07-13T03:56:12;3.03;;;2.00;;
17842;SDS011;69286;48.222;16.332;2023-07-13T03:58:40;3.87;;;1.67;;
17842;SDS011;69286;48.222;16.332;2023-07-13T04:01:09;4.73;;;1.67;;
17842;SDS011;69286;48.222;16.332;2023-07-13T04:03:37;2.47;;;1.80;;
17842;SDS011;69286;48.222;16.332;2023-07-13T04:06:05;3.40;;;1.80;;
17842;SDS011;69286;48.222;16.332;2023-07-13T04:08:34;2.70;;;1.53;;
17842;SDS011;69286;48.222;16.332;2023-07-13T04:11:03;2.57;;;1.80;;
17842;SDS011;69286;48.222;16.332;2023-07-13T04:13:32;4.40;;;2.00;;
17842;SDS011;69286;48.222;16.332;2023-07-13T04:15:59;3.80;;;1.77;;
17842;SDS011;69286;48.222;16.332;2023-07-13T04:18:26;3.67;;;1.90;;
17842;SDS011;69286;48.222;16.332;2023-07-13T04:20:53;2.90;;;1.80;;
17842;SDS011;69286;48.222;16.332;2023-07-13T04:23:20;2.50;;;1.60;;
17842;SDS011;69286;48.222;16.332;2023-07-13T04:25:48;3.60;;;2.10;;
17842;SDS011;69286;48.222;16.332;2023-07-13T04:28:17;2.37;;;2.00;;
17842;SDS011;69286;48.222;16.332;2023-07-13T04:30:46;2.53;;;2.00;;
17842;SDS011;69286;48.222;16.332;2023-07-13T04:33:13;3.73;;;2.20;;
17842;SDS011;69286;48.222;16.332;2023-07-13T04:35:42;3.97;;;2.50;;
17842;SDS011;69286;48.222;16.332;2023-07-13T04:38:09;6.20;;;2.20;;
17842;SDS011;69286;48.222;16.332;2023-07-13T04:40:37;4.20;;;2.00;;
17842;SDS011;69286;48.222;16.332;2023-07-13T04:43:04;7.13;;;2.10;;
17842;SDS011;69286;48.222;16.332;2023-07-13T04:45:31;2.03;;;1.60;;
17842;SDS011;69286;48.222;16.332;2023-07-13T04:47:59;3.27;;;1.90;;
17842;SDS011;69286;48.222;16.332;2023-07-13T04:50:26;3.50;;;1.90;;
17842;SDS011;69286;48.222;16.332;2023-07-13T04:52:53;2.50;;;2.13;;
17842;SDS011;69286;48.222;16.332;2023-07-13T04:55:21;5.80;;;2.23;;
17842;SDS011;69286;48.222;16.332;2023-07-13T04:57:48;2.47;;;1.87;;
17842;SDS011;69286;48.222;16.332;2023-07-13T05:00:15;2.37;;;1.70;;
17842;SDS011;69286;48.222;16.332;2023-07-13T05:02:43;3.90;;;1.60;;
17842;SDS011;69286;48.222;16.332;2023-07-13T05:05:12;5.20;;;1.97;;
17842;SDS011;69286;48.222;16.332;2023-07-13T05:07:40;2.43;;;1.67;;
17842;SDS011;69286;48.222;16.332;2023-07-13T05:10:07;2.20;;;1.70;;
17842;SDS011;69286;48.222;16.332;2023-07-13T05:12:35;4.33;;;1.47;;
17842;SDS011;69286;48.222;16.332;2023-07-13T05:15:02;1.47;;;1.37;;
17842;SDS011;69286;48.222;16.332;2023-07-13T05:17:30;2.93;;;1.63;;
17842;SDS011;69286;48.222;16.332;2023-07-13T05:19:57;1.50;;;1.40;;
17842;SDS011;69286;48.222;16.332;2023-07-13T05:22:26;3.57;;;1.60;;
17842;SDS011;69286;48.222;16.332;2023-07-13T05:24:53;4.27;;;1.60;;
17842;SDS011;69286;48.222;16.332;2023-07-13T05:27:20;4.40;;;2.53;;
17842;SDS011;69286;48.222;16.332;2023-07-13T05:29:47;1.90;;;1.40;;
17842;SDS011;69286;48.222;16.332;2023-07-13T05:32:14;1.43;;;1.27;;
17842;SDS011;69286;48.222;16.332;2023-07-13T05:34:41;2.63;;;1.30;;
17842;SDS011;69286;48.222;16.332;2023-07-13T05:37:08;2.13;;;1.47;;
17842;SDS011;69286;48.222;16.332;2023-07-13T05:39:36;1.23;;;1.13;;
17842;SDS011;69286;48.222;16.332;2023-07-13T05:42:03;1.60;;;1.10;;
17842;SDS011;69286;48.222;16.332;2023-07-13T05:44:30;2.73;;;1.20;;
17842;SDS011;69286;48.222;16.332;2023-07-13T05:46:57;1.80;;;1.20;;
17842;SDS011;69286;48.222;16.332;2023-07-13T05:49:25;2.03;;;1.20;;
17842;SDS011;69286;48.222;16.332;2023-07-13T05:51:52;2.27;;;1.80;;
17842;SDS011;69286;48.222;16.332;2023-07-13T05:54:19;1.30;;;1.20;;
17842;SDS011;69286;48.222;16.332;2023-07-13T05:56:47;2.10;;;1.40;;
17842;SDS011;69286;48.222;16.332;2023-07-13T05:59:14;2.70;;;1.40;;
17842;SDS011;69286;48.222;16.332;2023-07-13T06:01:41;5.40;;;1.53;;
17842;SDS011;69286;48.222;16.332;2023-07-13T06:04:08;2.87;;;2.50;;
17842;SDS011;69286;48.222;16.332;2023-07-13T06:06:35;4.40;;;1.40;;
17842;SDS011;69286;48.222;16.332;2023-07-13T06:09:02;1.50;;;1.40;;
17842;SDS011;69286;48.222;16.332;2023-07-13T06:11:29;1.57;;;1.37;;
17842;SDS011;69286;48.222;16.332;2023-07-13T06:13:58;4.10;;;1.90;;
17842;SDS011;69286;48.222;16.332;2023-07-13T06:16:25;1.70;;;1.50;;
17842;SDS011;69286;48.222;16.332;2023-07-13T06:18:52;2.50;;;1.50;;
17842;SDS011;69286;48.222;16.332;2023-07-13T06:21:19;1.93;;;1.40;;
17842;SDS011;69286;48.222;16.332;2023-07-13T06:23:48;3.23;;;1.40;;
17842;SDS011;69286;48.222;16.332;2023-07-13T06:26:16;1.83;;;1.40;;
17842;SDS011;69286;48.222;16.332;2023-07-13T06:28:44;3.07;;;1.60;;
17842;SDS011;69286;48.222;16.332;2023-07-13T06:31:13;2.33;;;1.50;;
17842;SDS011;69286;48.222;16.332;2023-07-13T06:33:40;5.33;;;1.50;;
17842;SDS011;69286;48.222;16.332;2023-07-13T06:36:07;2.20;;;1.30;;
17842;SDS011;69286;48.222;16.332;2023-07-13T06:38:35;1.50;;;1.40;;
17842;SDS011;69286;48.222;16.332;2023-07-13T06:41:02;11.33;;;1.90;;
17842;SDS011;69286;48.222;16.332;2023-07-13T06:43:30;4.17;;;1.50;;
17842;SDS011;69286;48.222;16.332;2023-07-13T06:45:57;2.90;;;1.53;;
17842;SDS011;69286;48.222;16.332;2023-07-13T06:48:26;1.93;;;1.40;;
17842;SDS011;69286;48.222;16.332;2023-07-13T06:50:54;1.57;;;1.40;;
17842;SDS011;69286;48.222;16.332;2023-07-13T06:53:21;5.73;;;1.87;;
17842;SDS011;69286;48.222;16.332;2023-07-13T06:55:49;1.50;;;1.40;;
17842;SDS011;69286;48.222;16.332;2023-07-13T06:58:17;1.37;;;1.27;;
17842;SDS011;69286;48.222;16.332;2023-07-13T07:00:44;3.10;;;1.50;;
17842;SDS011;69286;48.222;16.332;2023-07-13T07:03:12;1.37;;;1.27;;
17842;SDS011;69286;48.222;16.332;2023-07-13T07:05:40;3.37;;;1.50;;
17842;SDS011;69286;48.222;16.332;2023-07-13T07:08:07;1.50;;;1.17;;
17842;SDS011;69286;48.222;16.332;2023-07-13T07:10:34;1.60;;;1.50;;
17842;SDS011;69286;48.222;16.332;2023-07-13T07:13:02;4.47;;;1.63;;
17842;SDS011;69286;48.222;16.332;2023-07-13T07:15:29;4.27;;;1.63;;
17842;SDS011;69286;48.222;16.332;2023-07-13T07:17:56;2.10;;;1.50;;
17842;SDS011;69286;48.222;16.332;2023-07-13T07:20:26;1.27;;;1.23;;
17842;SDS011;69286;48.222;16.332;2023-07-13T07:22:55;1.77;;;1.50;;
17842;SDS011;69286;48.222;16.332;2023-07-13T07:25:21;1.40;;;1.30;;
17842;SDS011;69286;48.222;16.332;2023-07-13T07:27:48;2.77;;;1.40;;
17842;SDS011;69286;48.222;16.332;2023-07-13T07:30:15;2.17;;;1.53;;
17842;SDS011;69286;48.222;16.332;2023-07-13T07:32:42;2.07;;;1.53;;
17842;SDS011;69286;48.222;16.332;2023-07-13T07:35:09;3.33;;;1.43;;
17842;SDS011;69286;48.222;16.332;2023-07-13T07:37:36;1.47;;;1.33;;
17842;SDS011;69286;48.222;16.332;2023-07-13T07:40:05;2.47;;;1.60;;
17842;SDS011;69286;48.222;16.332;2023-07-13T07:42:34;2.83;;;1.40;;
17842;SDS011;69286;48.222;16.332;2023-07-13T07:45:01;2.37;;;1.23;;
17842;SDS011;69286;48.222;16.332;2023-07-13T07:47:28;1.50;;;1.13;;
17842;SDS011;69286;48.222;16.332;2023-07-13T07:49:55;3.23;;;1.10;;
17842;SDS011;69286;48.222;16.332;2023-07-13T07:52:21;3.70;;;1.20;;
17842;SDS011;69286;48.222;16.332;2023-07-13T07:54:48;1.40;;;1.10;;
17842;SDS011;69286;48.222;16.332;2023-07-13T07:57:17;2.47;;;1.13;;
17842;SDS011;69286;48.222;16.332;2023-07-13T07:59:44;2.80;;;1.03;;
17842;SDS011;69286;48.222;16.332;2023-07-13T08:02:11;1.60;;;1.00;;
17842;SDS011;69286;48.222;16.332;2023-07-13T08:04:38;3.90;;;1.20;;
17842;SDS011;69286;48.222;16.332;2023-07-13T08:07:05;1.30;;;1.20;;
17842;SDS011;69286;48.222;16.332;2023-07-13T08:09:32;3.00;;;1.10;;
17842;SDS011;69286;48.222;16.332;2023-07-13T08:11:59;3.20;;;1.30;;
17842;SDS011;69286;48.222;16.332;2023-07-13T08:14:27;2.40;;;1.10;;
17842;SDS011;69286;48.222;16.332;2023-07-13T08:16:54;1.20;;;1.10;;
17842;SDS011;69286;48.222;16.332;2023-07-13T08:19:21;1.47;;;1.10;;
17842;SDS011;69286;48.222;16.332;2023-07-13T08:21:48;1.67;;;1.20;;
17842;SDS011;69286;48.222;16.332;2023-07-13T08:24:15;1.33;;;1.20;;
17842;SDS011;69286;48.222;16.332;2023-07-13T08:26:43;3.30;;;1.25;;
17842;SDS011;69286;48.222;16.332;2023-07-13T08:29:11;1.52;;;1.17;;
17842;SDS011;69286;48.222;16.332;2023-07-13T08:31:40;1.20;;;1.13;;
17842;SDS011;69286;48.222;16.332;2023-07-13T08:34:07;1.38;;;1.20;;
17842;SDS011;69286;48.222;16.332;2023-07-13T08:36:33;1.40;;;1.30;;
17842;SDS011;69286;48.222;16.332;2023-07-13T08:39:00;2.90;;;1.35;;
17842;SDS011;69286;48.222;16.332;2023-07-13T08:41:27;1.52;;;1.30;;
17842;SDS011;69286;48.222;16.332;2023-07-13T08:43:56;2.38;;;1.23;;
17842;SDS011;69286;48.222;16.332;2023-07-13T08:46:25;6.43;;;1.80;;
17842;SDS011;69286;48.222;16.332;2023-07-13T08:49:00;1.90;;;1.60;;
17842;SDS011;69286;48.222;16.332;2023-07-13T08:51:32;2.85;;;1.70;;
17842;SDS011;69286;48.222;16.332;2023-07-13T08:54:17;2.10;;;1.83;;
17842;SDS011;69286;48.222;16.332;2023-07-13T08:56:48;5.28;;;1.77;;
17842;SDS011;69286;48.222;16.332;2023-07-13T08:59:19;2.35;;;1.63;;
17842;SDS011;69286;48.222;16.332;2023-07-13T09:01:56;3.67;;;1.70;;
17842;SDS011;69286;48.222;16.332;2023-07-13T09:04:37;3.78;;;1.58;;
17842;SDS011;69286;48.222;16.332;2023-07-13T09:07:11;4.13;;;1.80;;
17842;SDS011;69286;48.222;16.332;2023-07-13T09:09:47;5.30;;;2.00;;
17842;SDS011;69286;48.222;16.332;2023-07-13T09:12:23;2.10;;;1.80;;
17842;SDS011;69286;48.222;16.332;2023-07-13T09:14:58;3.95;;;1.90;;
17842;SDS011;69286;48.222;16.332;2023-07-13T09:17:31;3.03;;;2.15;;
17842;SDS011;69286;48.222;16.332;2023-07-13T09:20:04;2.03;;;1.83;;
17842;SDS011;69286;48.222;16.332;2023-07-13T09:22:43;4.22;;;2.47;;
17842;SDS011;69286;48.222;16.332;2023-07-13T09:25:13;2.55;;;1.90;;
17842;SDS011;69286;48.222;16.332;2023-07-13T09:27:50;3.83;;;2.03;;
17842;SDS011;69286;48.222;16.332;2023-07-13T09:30:23;2.35;;;2.13;;
17842;SDS011;69286;48.222;16.332;2023-07-13T09:32:56;3.47;;;2.55;;
17842;SDS011;69286;48.222;16.332;2023-07-13T09:35:26;3.40;;;2.03;;
17842;SDS011;69286;48.222;16.332;2023-07-13T09:37:57;2.17;;;1.95;;
17842;SDS011;69286;48.222;16.332;2023-07-13T09:40:28;4.88;;;2.33;;
17842;SDS011;69286;48.222;16.332;2023-07-13T09:43:02;2.22;;;2.10;;
17842;SDS011;69286;48.222;16.332;2023-07-13T09:45:33;2.75;;;2.13;;
17842;SDS011;69286;48.222;16.332;2023-07-13T09:48:03;2.58;;;2.25;;
17842;SDS011;69286;48.222;16.332;2023-07-13T09:50:34;3.55;;;2.20;;
17842;SDS011;69286;48.222;16.332;2023-07-13T09:53:02;2.53;;;2.20;;
17842;SDS011;69286;48.222;16.332;2023-07-13T09:55:30;6.50;;;2.55;;
17842;SDS011;69286;48.222;16.332;2023-07-13T09:58:02;2.90;;;2.25;;
17842;SDS011;69286;48.222;16.332;2023-07-13T10:00:32;4.13;;;2.28;;
17842;SDS011;69286;48.222;16.332;2023-07-13T10:03:00;6.05;;;2.70;;
17842;SDS011;69286;48.222;16.332;2023-07-13T10:05:38;4.65;;;2.58;;
17842;SDS011;69286;48.222;16.332;2023-07-13T10:08:09;2.90;;;2.47;;
17842;SDS011;69286;48.222;16.332;2023-07-13T10:10:43;3.30;;;2.30;;
17842;SDS011;69286;48.222;16.332;2023-07-13T10:13:21;8.85;;;2.20;;
17842;SDS011;69286;48.222;16.332;2023-07-13T10:15:56;5.82;;;3.13;;
17842;SDS011;69286;48.222;16.332;2023-07-13T10:18:25;2.78;;;2.35;;
17842;SDS011;69286;48.222;16.332;2023-07-13T10:20:55;5.90;;;2.55;;
17842;SDS011;69286;48.222;16.332;2023-07-13T10:23:35;4.28;;;2.90;;
17842;SDS011;69286;48.222;16.332;2023-07-13T10:26:02;6.68;;;2.75;;
17842;SDS011;69286;48.222;16.332;2023-07-13T10:28:31;4.10;;;2.70;;
17842;SDS011;69286;48.222;16.332;2023-07-13T10:31:02;5.95;;;2.33;;
17842;SDS011;69286;48.222;16.332;2023-07-13T10:33:35;3.97;;;2.83;;
17842;SDS011;69286;48.222;16.332;2023-07-13T10:36:05;3.63;;;2.75;;
17842;SDS011;69286;48.222;16.332;2023-07-13T10:38:40;3.38;;;2.60;;
17842;SDS011;69286;48.222;16.332;2023-07-13T10:41:10;2.78;;;2.58;;
17842;SDS011;69286;48.222;16.332;2023-07-13T10:43:41;2.42;;;2.22;;
17842;SDS011;69286;48.222;16.332;2023-07-13T10:46:10;3.22;;;2.60;;
17842;SDS011;69286;48.222;16.332;2023-07-13T10:48:39;3.53;;;2.60;;
17842;SDS011;69286;48.222;16.332;2023-07-13T10:51:10;4.75;;;2.85;;
17842;SDS011;69286;48.222;16.332;2023-07-13T10:53:40;3.13;;;2.72;;
17842;SDS011;69286;48.222;16.332;2023-07-13T10:56:18;5.50;;;2.72;;
17842;SDS011;69286;48.222;16.332;2023-07-13T10:59:01;2.72;;;2.50;;
17842;SDS011;69286;48.222;16.332;2023-07-13T11:01:39;2.92;;;2.30;;
17842;SDS011;69286;48.222;16.332;2023-07-13T11:04:12;7.03;;;2.90;;
17842;SDS011;69286;48.222;16.332;2023-07-13T11:06:42;3.60;;;2.58;;
17842;SDS011;69286;48.222;16.332;2023-07-13T11:12:01;3.30;;;2.30;;
17842;SDS011;69286;48.222;16.332;2023-07-13T11:14:34;4.68;;;2.60;;
17842;SDS011;69286;48.222;16.332;2023-07-13T11:20:08;3.78;;;2.50;;
17842;SDS011;69286;48.222;16.332;2023-07-13T11:22:47;3.85;;;2.47;;
17842;SDS011;69286;48.222;16.332;2023-07-13T11:25:26;2.05;;;1.95;;
17842;SDS011;69286;48.222;16.332;2023-07-13T11:28:05;4.63;;;2.78;;
17842;SDS011;69286;48.222;16.332;2023-07-13T11:30:43;2.75;;;2.40;;
17842;SDS011;69286;48.222;16.332;2023-07-13T11:33:16;5.63;;;2.75;;
17842;SDS011;69286;48.222;16.332;2023-07-13T11:35:46;3.50;;;2.30;;
17842;SDS011;69286;48.222;16.332;2023-07-13T11:38:20;5.20;;;2.22;;
17842;SDS011;69286;48.222;16.332;2023-07-13T11:40:48;3.05;;;2.50;;
17842;SDS011;69286;48.222;16.332;2023-07-13T11:43:19;4.10;;;2.40;;
17842;SDS011;69286;48.222;16.332;2023-07-13T11:45:48;4.63;;;2.30;;
17842;SDS011;69286;48.222;16.332;2023-07-13T11:48:23;8.38;;;2.55;;
17842;SDS011;69286;48.222;16.332;2023-07-13T11:50:55;2.90;;;2.10;;
17842;SDS011;69286;48.222;16.332;2023-07-13T11:53:28;4.50;;;2.60;;
17842;SDS011;69286;48.222;16.332;2023-07-13T11:56:00;2.80;;;2.40;;
17842;SDS011;69286;48.222;16.332;2023-07-13T11:58:27;4.05;;;2.03;;
17842;SDS011;69286;48.222;16.332;2023-07-13T12:00:55;3.53;;;2.17;;
17842;SDS011;69286;48.222;16.332;2023-07-13T12:03:26;3.22;;;2.20;;
17842;SDS011;69286;48.222;16.332;2023-07-13T12:05:58;3.13;;;2.45;;
17842;SDS011;69286;48.222;16.332;2023-07-13T12:08:27;3.78;;;2.72;;
17842;SDS011;69286;48.222;16.332;2023-07-13T12:10:59;3.90;;;2.00;;
17842;SDS011;69286;48.222;16.332;2023-07-13T12:13:34;6.57;;;2.05;;
17842;SDS011;69286;48.222;16.332;2023-07-13T12:16:14;3.95;;;2.58;;
17842;SDS011;69286;48.222;16.332;2023-07-13T12:18:46;5.63;;;2.70;;
17842;SDS011;69286;48.222;16.332;2023-07-13T12:21:16;6.63;;;2.78;;
17842;SDS011;69286;48.222;16.332;2023-07-13T12:23:47;2.45;;;2.20;;
17842;SDS011;69286;48.222;16.332;2023-07-13T12:26:15;4.22;;;2.40;;
17842;SDS011;69286;48.222;16.332;2023-07-13T12:28:45;2.97;;;2.47;;
17842;SDS011;69286;48.222;16.332;2023-07-13T12:31:24;6.53;;;2.42;;
17842;SDS011;69286;48.222;16.332;2023-07-13T12:33:57;3.65;;;2.38;;
17842;SDS011;69286;48.222;16.332;2023-07-13T12:36:25;5.28;;;2.63;;
17842;SDS011;69286;48.222;16.332;2023-07-13T12:38:56;3.70;;;2.15;;
17842;SDS011;69286;48.222;16.332;2023-07-13T12:41:29;2.72;;;2.00;;
17842;SDS011;69286;48.222;16.332;2023-07-13T12:43:56;4.82;;;2.33;;
17842;SDS011;69286;48.222;16.332;2023-07-13T12:46:23;4.70;;;2.50;;
17842;SDS011;69286;48.222;16.332;2023-07-13T12:48:54;4.95;;;2.28;;
17842;SDS011;69286;48.222;16.332;2023-07-13T12:51:24;4.15;;;2.33;;
17842;SDS011;69286;48.222;16.332;2023-07-13T12:53:55;3.70;;;2.42;;
17842;SDS011;69286;48.222;16.332;2023-07-13T12:56:32;4.10;;;2.40;;
17842;SDS011;69286;48.222;16.332;2023-07-13T12:59:01;3.05;;;2.25;;
17842;SDS011;69286;48.222;16.332;2023-07-13T13:01:31;4.88;;;2.00;;
17842;SDS011;69286;48.222;16.332;2023-07-13T13:04:02;6.13;;;2.42;;
17842;SDS011;69286;48.222;16.332;2023-07-13T13:06:32;3.20;;;2.60;;
17842;SDS011;69286;48.222;16.332;2023-07-13T13:09:02;2.58;;;2.10;;
17842;SDS011;69286;48.222;16.332;2023-07-13T13:11:30;4.15;;;2.30;;
17842;SDS011;69286;48.222;16.332;2023-07-13T13:13:59;4.20;;;2.33;;
17842;SDS011;69286;48.222;16.332;2023-07-13T13:16:29;6.18;;;2.30;;
17842;SDS011;69286;48.222;16.332;2023-07-13T13:18:59;2.95;;;2.28;;
17842;SDS011;69286;48.222;16.332;2023-07-13T13:21:30;3.53;;;2.45;;
17842;SDS011;69286;48.222;16.332;2023-07-13T13:23:57;3.85;;;2.30;;
17842;SDS011;69286;48.222;16.332;2023-07-13T13:26:26;6.35;;;4.32;;
17842;SDS011;69286;48.222;16.332;2023-07-13T13:28:53;5.80;;;2.50;;
17842;SDS011;69286;48.222;16.332;2023-07-13T13:31:20;3.92;;;3.10;;
17842;SDS011;69286;48.222;16.332;2023-07-13T13:33:47;3.55;;;3.10;;
17842;SDS011;69286;48.222;16.332;2023-07-13T13:36:15;3.60;;;2.50;;
17842;SDS011;69286;48.222;16.332;2023-07-13T13:38:44;7.65;;;3.60;;
17842;SDS011;69286;48.222;16.332;2023-07-13T13:41:11;4.53;;;2.60;;
17842;SDS011;69286;48.222;16.332;2023-07-13T13:43:41;3.65;;;2.50;;
17842;SDS011;69286;48.222;16.332;2023-07-13T13:46:14;3.80;;;2.20;;
17842;SDS011;69286;48.222;16.332;2023-07-13T13:48:43;2.40;;;2.20;;
17842;SDS011;69286;48.222;16.332;2023-07-13T13:51:15;5.70;;;2.97;;
17842;SDS011;69286;48.222;16.332;2023-07-13T13:53:43;5.05;;;2.30;;
17842;SDS011;69286;48.222;16.332;2023-07-13T13:56:11;2.83;;;2.50;;
17842;SDS011;69286;48.222;16.332;2023-07-13T13:58:38;3.55;;;2.33;;
17842;SDS011;69286;48.222;16.332;2023-07-13T14:01:08;5.97;;;3.28;;
17842;SDS011;69286;48.222;16.332;2023-07-13T14:03:39;4.47;;;2.65;;
17842;SDS011;69286;48.222;16.332;2023-07-13T14:06:07;3.60;;;2.50;;
17842;SDS011;69286;48.222;16.332;2023-07-13T14:08:37;4.45;;;2.10;;
17842;SDS011;69286;48.222;16.332;2023-07-13T14:11:04;8.18;;;3.85;;
17842;SDS011;69286;48.222;16.332;2023-07-13T14:13:34;3.85;;;2.90;;
17842;SDS011;69286;48.222;16.332;2023-07-13T14:16:10;3.10;;;2.50;;
17842;SDS011;69286;48.222;16.332;2023-07-13T14:18:38;4.45;;;2.60;;
17842;SDS011;69286;48.222;16.332;2023-07-13T14:21:08;2.83;;;2.45;;
17842;SDS011;69286;48.222;16.332;2023-07-13T14:23:39;4.63;;;2.17;;
17842;SDS011;69286;48.222;16.332;2023-07-13T14:26:08;2.58;;;2.20;;
17842;SDS011;69286;48.222;16.332;2023-07-13T14:28:37;3.25;;;2.20;;
17842;SDS011;69286;48.222;16.332;2023-07-13T14:31:09;2.30;;;2.10;;
17842;SDS011;69286;48.222;16.332;2023-07-13T14:33:36;4.03;;;2.30;;
17842;SDS011;69286;48.222;16.332;2023-07-13T14:36:05;4.28;;;2.25;;
17842;SDS011;69286;48.222;16.332;2023-07-13T14:38:47;10.93;;;5.13;;
17842;SDS011;69286;48.222;16.332;2023-07-13T14:41:15;6.57;;;3.58;;
17842;SDS011;69286;48.222;16.332;2023-07-13T14:43:43;7.40;;;3.13;;
17842;SDS011;69286;48.222;16.332;2023-07-13T14:46:16;4.95;;;2.88;;
17842;SDS011;69286;48.222;16.332;2023-07-13T14:48:51;4.78;;;4.25;;
17842;SDS011;69286;48.222;16.332;2023-07-13T14:51:20;4.63;;;3.40;;